createdAt,value
2018-04-06T00:00:33.864Z,14.40
2018-04-06T00:03:02.589Z,14.32
2018-04-06T00:05:31.409Z,14.22
2018-04-06T00:08:00.132Z,14.14
2018-04-06T00:10:28.865Z,14.08
2018-04-06T00:12:57.446Z,14.01
2018-04-06T00:15:27.805Z,13.97
2018-04-06T00:17:56.530Z,14.10
2018-04-06T00:20:25.158Z,14.13
2018-04-06T00:22:54.468Z,14.13
2018-04-06T00:25:23.390Z,14.37
2018-04-06T00:27:52.112Z,14.41
2018-04-06T00:30:20.833Z,14.57
2018-04-06T00:32:49.756Z,14.31
2018-04-06T00:35:18.391Z,14.29
2018-04-06T00:37:47.044Z,14.21
2018-04-06T00:40:15.708Z,14.17
2018-04-06T00:42:44.277Z,14.12
2018-04-06T00:45:13.682Z,14.13
2018-04-06T00:47:42.388Z,14.09
2018-04-06T00:50:11.019Z,14.11
2018-04-06T00:52:39.632Z,14.06
2018-04-06T00:55:08.211Z,14.01
2018-04-06T00:57:37.790Z,14.01
2018-04-06T01:00:06.502Z,13.83
2018-04-06T01:02:35.126Z,13.84
2018-04-06T01:05:03.943Z,13.64
2018-04-06T01:07:32.665Z,13.82
2018-04-06T01:10:01.389Z,13.87
2018-04-06T01:12:30.216Z,13.80
2018-04-06T01:14:58.831Z,13.78
2018-04-06T01:17:27.554Z,13.75
2018-04-06T01:19:56.275Z,13.78
2018-04-06T01:22:25.598Z,13.78
2018-04-06T01:24:54.321Z,13.78
2018-04-06T01:27:23.644Z,13.81
2018-04-06T01:29:52.970Z,13.81
2018-04-06T01:32:21.692Z,13.80
2018-04-06T01:34:50.412Z,13.78
2018-04-06T01:37:19.135Z,13.76
2018-04-06T01:39:48.158Z,13.75
2018-04-06T01:42:16.778Z,13.69
2018-04-06T01:44:45.367Z,13.70
2018-04-06T01:47:14.124Z,13.74
2018-04-06T01:49:42.803Z,13.77
2018-04-06T01:52:11.464Z,13.77
2018-04-06T01:54:40.186Z,13.77
2018-04-06T01:57:08.912Z,13.71
2018-04-06T01:59:37.632Z,13.71
2018-04-06T02:02:07.055Z,13.73
2018-04-06T02:04:35.877Z,13.71
2018-04-06T02:07:04.500Z,13.59
2018-04-06T02:09:33.220Z,13.59
2018-04-06T02:12:01.942Z,13.64
2018-04-06T02:14:30.663Z,13.57
2018-04-06T02:16:59.386Z,13.54
2018-04-06T02:19:28.113Z,13.51
2018-04-06T02:21:56.735Z,13.46
2018-04-06T02:24:25.361Z,13.52
2018-04-06T02:26:54.674Z,13.50
2018-04-06T02:29:23.500Z,13.39
2018-04-06T02:31:52.332Z,13.24
2018-04-06T02:34:21.603Z,13.25
2018-04-06T02:36:50.268Z,13.30
2018-04-06T02:39:18.986Z,13.29
2018-04-06T02:41:48.315Z,13.24
2018-04-06T02:44:16.957Z,13.33
2018-04-06T02:47:09.612Z,13.38
2018-04-06T02:49:38.360Z,13.44
2018-04-06T02:52:06.976Z,13.36
2018-04-06T02:54:35.622Z,13.42
2018-04-06T02:57:04.403Z,13.40
2018-04-06T02:59:33.018Z,13.40
2018-04-06T03:02:01.770Z,13.41
2018-04-06T03:04:31.005Z,13.34
2018-04-06T03:06:59.815Z,13.32
2018-04-06T03:09:29.439Z,13.35
2018-04-06T03:11:58.160Z,13.31
2018-04-06T03:14:26.896Z,13.27
2018-04-06T03:16:55.511Z,13.33
2018-04-06T03:19:24.227Z,13.35
2018-04-06T03:21:52.948Z,13.36
2018-04-06T03:24:21.486Z,13.37
2018-04-06T03:26:50.152Z,13.23
2018-04-06T03:29:18.830Z,13.34
2018-04-06T03:31:47.438Z,13.36
2018-04-06T03:34:16.155Z,13.38
2018-04-06T03:36:44.777Z,13.43
2018-04-06T03:39:13.398Z,13.45
2018-04-06T03:41:42.353Z,13.46
2018-04-06T03:44:11.054Z,13.51
2018-04-06T03:46:39.678Z,13.51
2018-04-06T03:49:08.385Z,13.49
2018-04-06T03:51:37.010Z,13.45
2018-04-06T03:54:05.811Z,13.46
2018-04-06T03:56:34.554Z,13.46
2018-04-06T03:59:03.375Z,13.38
2018-04-06T04:01:32.800Z,13.32
2018-04-06T04:04:01.443Z,13.35
2018-04-06T04:06:30.146Z,13.34
2018-04-06T04:08:58.964Z,13.37
2018-04-06T04:11:27.603Z,13.35
2018-04-06T04:13:56.320Z,13.27
2018-04-06T04:16:25.069Z,13.36
2018-04-06T04:18:53.687Z,13.38
2018-04-06T04:21:22.291Z,13.40
2018-04-06T04:23:51.096Z,13.43
2018-04-06T04:26:19.722Z,13.52
2018-04-06T04:28:48.421Z,13.57
2018-04-06T04:31:17.006Z,13.54
2018-04-06T04:33:45.782Z,13.52
2018-04-06T04:36:14.404Z,13.55
2018-04-06T04:38:43.118Z,13.54
2018-04-06T04:41:11.706Z,13.51
2018-04-06T04:43:40.276Z,13.52
2018-04-06T04:46:09.794Z,13.40
2018-04-06T04:48:38.414Z,13.51
2018-04-06T04:51:06.995Z,13.46
2018-04-06T04:53:35.560Z,13.54
2018-04-06T04:56:04.182Z,13.58
2018-04-06T04:58:32.733Z,13.61
2018-04-06T05:01:01.389Z,13.62
2018-04-06T05:03:30.145Z,13.68
2018-04-06T05:05:58.926Z,13.74
2018-04-06T05:08:27.568Z,13.70
2018-04-06T05:10:56.209Z,13.75
2018-04-06T05:13:24.947Z,13.75
2018-04-06T05:15:53.530Z,13.70
2018-04-06T05:18:22.777Z,13.80
2018-04-06T05:20:51.381Z,13.84
2018-04-06T05:23:20.092Z,13.86
2018-04-06T05:25:49.160Z,13.90
2018-04-06T05:28:17.773Z,13.88
2018-04-06T05:30:46.386Z,13.91
2018-04-06T05:33:15.104Z,13.94
2018-04-06T05:35:43.753Z,13.90
2018-04-06T05:38:12.293Z,13.94
2018-04-06T05:40:40.934Z,13.97
2018-04-06T05:43:09.592Z,13.98
2018-04-06T05:45:38.313Z,13.97
2018-04-06T05:48:06.884Z,14.02
2018-04-06T05:50:35.657Z,14.12
2018-04-06T05:53:04.285Z,14.21
2018-04-06T05:55:33.503Z,14.21
2018-04-06T05:58:02.306Z,14.19
2018-04-06T06:00:31.049Z,14.24
2018-04-06T06:03:00.470Z,14.31
2018-04-06T06:05:29.092Z,14.19
2018-04-06T06:07:57.815Z,14.27
2018-04-06T06:10:26.436Z,14.27
2018-04-06T06:12:55.065Z,14.30
2018-04-06T06:15:23.779Z,14.35
2018-04-06T06:17:52.535Z,14.33
2018-04-06T06:20:21.324Z,14.34
2018-04-06T06:22:49.951Z,14.35
2018-04-06T06:25:18.646Z,14.29
2018-04-06T06:27:47.395Z,14.37
2018-04-06T06:30:16.011Z,14.38
2018-04-06T06:32:50.735Z,13.89
2018-04-06T06:35:19.478Z,14.47
2018-04-06T06:37:48.194Z,14.48
2018-04-06T06:40:16.916Z,14.39
2018-04-06T06:42:46.246Z,14.37
2018-04-06T06:45:14.963Z,14.40
2018-04-06T06:47:43.583Z,14.38
2018-04-06T06:50:13.009Z,14.43
2018-04-06T06:52:41.731Z,14.43
2018-04-06T06:55:10.453Z,14.39
2018-04-06T06:57:39.080Z,14.42
2018-04-06T07:00:07.708Z,14.38
2018-04-06T07:02:36.416Z,14.29
2018-04-06T07:05:05.141Z,14.10
2018-04-06T07:07:33.688Z,14.04
2018-04-06T07:10:02.482Z,14.01
2018-04-06T07:12:31.204Z,14.05
2018-04-06T07:15:00.027Z,13.36
2018-04-06T07:17:28.748Z,13.97
2018-04-06T07:19:57.777Z,13.97
2018-04-06T07:22:26.391Z,13.97
2018-04-06T07:24:55.013Z,13.93
2018-04-06T07:27:23.654Z,13.87
2018-04-06T07:29:52.295Z,13.91
2018-04-06T07:32:20.887Z,13.88
2018-04-06T07:34:49.602Z,13.83
2018-04-06T07:37:18.341Z,13.85
2018-04-06T07:39:47.245Z,13.88
2018-04-06T07:42:15.866Z,13.85
2018-04-06T07:44:44.590Z,13.94
2018-04-06T07:47:13.321Z,14.00
2018-04-06T07:49:42.032Z,14.04
2018-04-06T07:52:10.684Z,14.11
2018-04-06T07:54:39.475Z,14.19
2018-04-06T07:57:08.245Z,14.24
2018-04-06T07:59:37.220Z,14.27
2018-04-06T08:02:07.547Z,14.25
2018-04-06T08:04:36.277Z,14.31
2018-04-06T08:07:04.991Z,14.23
2018-04-06T08:09:33.620Z,14.30
2018-04-06T08:12:02.358Z,14.24
2018-04-06T08:14:31.058Z,14.28
2018-04-06T08:16:59.783Z,14.30
2018-04-06T08:19:28.501Z,14.35
2018-04-06T08:21:57.226Z,14.42
2018-04-06T08:24:25.845Z,14.43
2018-04-06T08:26:54.431Z,14.38
2018-04-06T08:29:23.991Z,14.51
2018-04-06T08:31:52.592Z,14.46
2018-04-06T08:34:21.333Z,14.46
2018-04-06T08:36:50.055Z,14.52
2018-04-06T08:39:18.739Z,14.57
2018-04-06T08:41:47.381Z,14.66
2018-04-06T08:44:16.127Z,14.66
2018-04-06T08:46:44.845Z,14.66
2018-04-06T08:49:13.463Z,14.60
2018-04-06T08:51:42.184Z,14.64
2018-04-06T08:54:10.889Z,14.50
2018-04-06T08:56:39.631Z,14.56
2018-04-06T08:59:08.352Z,14.60
2018-04-06T09:01:37.073Z,14.54
2018-04-06T09:04:05.799Z,14.62
2018-04-06T09:06:34.418Z,14.59
2018-04-06T09:09:03.206Z,14.66
2018-04-06T09:11:31.833Z,14.62
2018-04-06T09:14:00.585Z,14.70
2018-04-06T09:16:29.202Z,14.69
2018-04-06T09:18:57.928Z,14.77
2018-04-06T09:21:26.553Z,14.69
2018-04-06T09:23:55.371Z,14.77
2018-04-06T09:26:24.090Z,14.76
2018-04-06T09:28:52.735Z,14.74
2018-04-06T09:31:21.292Z,14.62
2018-04-06T09:33:50.059Z,14.58
2018-04-06T09:36:18.681Z,14.59
2018-04-06T09:38:47.847Z,14.44
2018-04-06T09:41:16.538Z,14.39
2018-04-06T09:43:45.231Z,14.40
2018-04-06T09:46:13.966Z,14.36
2018-04-06T09:48:42.508Z,14.21
2018-04-06T09:51:11.211Z,14.13
2018-04-06T09:53:39.930Z,14.05
2018-04-06T09:56:08.491Z,13.96
2018-04-06T09:58:37.175Z,13.92
2018-04-06T10:01:07.604Z,13.84
2018-04-06T10:03:36.183Z,13.86
2018-04-06T10:06:06.225Z,13.90
2018-04-06T10:08:35.974Z,13.85
2018-04-06T10:11:04.861Z,13.80
2018-04-06T10:13:33.502Z,13.79
2018-04-06T10:16:02.140Z,13.75
2018-04-06T10:18:30.695Z,13.69
2018-04-06T10:20:59.450Z,13.71
2018-04-06T10:23:28.128Z,13.69
2018-04-06T10:25:56.726Z,13.70
2018-04-06T10:28:25.357Z,13.75
2018-04-06T10:30:54.072Z,13.78
2018-04-06T10:33:22.791Z,13.70
2018-04-06T10:35:51.513Z,13.77
2018-04-06T10:38:20.738Z,13.82
2018-04-06T10:40:49.463Z,13.79
2018-04-06T10:43:18.181Z,13.81
2018-04-06T10:45:46.804Z,13.81
2018-04-06T10:48:15.526Z,13.83
2018-04-06T10:50:44.107Z,13.80
2018-04-06T10:53:12.742Z,13.78
2018-04-06T10:55:41.596Z,13.82
2018-04-06T10:58:10.426Z,13.74
2018-04-06T11:00:39.134Z,13.64
2018-04-06T11:03:07.855Z,13.56
2018-04-06T11:05:36.579Z,13.54
2018-04-06T11:08:05.399Z,13.47
2018-04-06T11:10:34.038Z,13.39
2018-04-06T11:13:02.743Z,13.42
2018-04-06T11:15:31.464Z,13.41
2018-04-06T11:18:00.188Z,13.42
2018-04-06T11:20:29.994Z,13.34
2018-04-06T11:22:58.558Z,13.34
2018-04-06T11:25:27.254Z,13.30
2018-04-06T11:27:55.858Z,13.36
2018-04-06T11:30:24.601Z,13.41
2018-04-06T11:32:53.319Z,13.48
2018-04-06T11:35:21.849Z,13.46
2018-04-06T11:37:50.476Z,13.42
2018-04-06T11:40:19.026Z,13.37
2018-04-06T11:42:47.606Z,13.38
2018-04-06T11:45:16.328Z,13.39
2018-04-06T11:47:45.049Z,13.36
2018-04-06T11:50:13.775Z,13.35
2018-04-06T11:52:43.196Z,13.30
2018-04-06T11:55:11.823Z,13.24
2018-04-06T11:57:40.539Z,13.27
2018-04-06T12:00:09.363Z,13.34
2018-04-06T12:02:37.982Z,13.42
2018-04-06T12:05:06.609Z,13.39
2018-04-06T12:07:35.321Z,13.37
2018-04-06T12:10:04.150Z,13.41
2018-04-06T12:12:32.869Z,13.54
2018-04-06T12:15:01.493Z,13.67
2018-04-06T12:17:30.058Z,13.79
2018-04-06T12:19:58.805Z,13.93
2018-04-06T12:22:27.493Z,14.26
2018-04-06T12:24:56.186Z,14.49
2018-04-06T12:27:24.743Z,14.56
2018-04-06T12:29:53.420Z,14.61
2018-04-06T12:32:22.042Z,14.71
2018-04-06T12:34:50.765Z,14.73
2018-04-06T12:37:19.394Z,14.61
2018-04-06T12:39:48.107Z,14.55
2018-04-06T12:42:16.657Z,14.58
2018-04-06T12:44:45.350Z,14.83
2018-04-06T12:47:14.774Z,14.95
2018-04-06T12:49:43.497Z,14.93
2018-04-06T12:52:12.221Z,14.92
2018-04-06T12:54:40.942Z,15.09
2018-04-06T12:57:10.489Z,15.20
2018-04-06T12:59:39.187Z,15.26
2018-04-06T13:02:08.110Z,15.31
2018-04-06T13:04:36.840Z,15.44
2018-04-06T13:07:05.427Z,15.38
2018-04-06T13:09:34.022Z,15.54
2018-04-06T13:12:02.606Z,15.55
2018-04-06T13:14:31.223Z,15.59
2018-04-06T13:16:59.938Z,15.78
2018-04-06T13:19:28.560Z,15.70
2018-04-06T13:21:57.385Z,15.68
2018-04-06T13:24:26.105Z,15.88
2018-04-06T13:26:54.828Z,15.95
2018-04-06T13:29:23.651Z,16.09
2018-04-06T13:31:52.297Z,15.97
2018-04-06T13:34:20.953Z,15.90
2018-04-06T13:36:49.612Z,15.67
2018-04-06T13:39:18.642Z,15.22
2018-04-06T13:41:47.215Z,15.39
2018-04-06T13:44:15.893Z,15.19
2018-04-06T13:46:44.614Z,15.31
2018-04-06T13:49:13.224Z,15.18
2018-04-06T13:51:41.946Z,15.22
2018-04-06T13:54:10.666Z,15.19
2018-04-06T13:56:39.393Z,14.90
2018-04-06T13:59:08.026Z,14.86
2018-04-06T14:01:36.646Z,15.00
2018-04-06T14:04:05.252Z,15.35
2018-04-06T14:06:36.081Z,15.26
2018-04-06T14:09:04.804Z,15.17
2018-04-06T14:11:33.603Z,15.24
2018-04-06T14:14:02.347Z,15.12
2018-04-06T14:16:34.982Z,14.56
2018-04-06T14:19:03.707Z,15.32
2018-04-06T14:21:33.572Z,15.09
2018-04-06T14:24:02.360Z,14.88
2018-04-06T14:26:31.080Z,14.96
2018-04-06T14:28:59.772Z,14.92
2018-04-06T14:31:28.344Z,14.82
2018-04-06T14:33:57.107Z,14.81
2018-04-06T14:36:25.865Z,14.70
2018-04-06T14:38:54.499Z,14.55
2018-04-06T14:41:23.187Z,14.51
2018-04-06T14:43:51.926Z,14.45
2018-04-06T14:46:20.756Z,14.31
2018-04-06T14:48:50.278Z,14.13
2018-04-06T14:51:19.003Z,14.04
2018-04-06T14:53:47.626Z,14.05
2018-04-06T14:56:16.339Z,14.01
2018-04-06T14:58:44.979Z,13.99
2018-04-06T15:01:13.584Z,13.94
2018-04-06T15:03:42.229Z,13.85
2018-04-06T15:06:10.825Z,14.01
2018-04-06T15:08:39.456Z,14.03
2018-04-06T15:11:08.173Z,13.81
2018-04-06T15:13:36.890Z,14.15
2018-04-06T15:16:05.614Z,14.16
2018-04-06T15:18:34.438Z,14.07
2018-04-06T15:21:03.156Z,13.73
2018-04-06T15:23:31.880Z,13.81
2018-04-06T15:26:00.524Z,13.74
2018-04-06T15:28:29.999Z,13.64
2018-04-06T15:30:58.653Z,13.67
2018-04-06T15:33:27.369Z,13.56
2018-04-06T15:35:56.050Z,13.56
2018-04-06T15:38:24.692Z,13.56
2018-04-06T15:40:53.440Z,13.49
2018-04-06T15:43:22.004Z,13.48
2018-04-06T15:45:50.776Z,13.50
2018-04-06T15:48:19.403Z,13.48
2018-04-06T15:50:48.123Z,13.50
2018-04-06T15:53:16.701Z,13.43
2018-04-06T15:55:45.432Z,13.51
2018-04-06T15:58:14.109Z,13.46
2018-04-06T16:00:43.123Z,13.50
2018-04-06T16:03:11.839Z,13.47
2018-04-06T16:05:40.914Z,13.49
2018-04-06T16:08:09.591Z,13.49
2018-04-06T16:10:38.983Z,13.41
2018-04-06T16:13:07.723Z,13.50
2018-04-06T16:15:36.343Z,13.48
2018-04-06T16:18:04.966Z,13.42
2018-04-06T16:20:33.590Z,13.32
2018-04-06T16:23:02.235Z,13.18
2018-04-06T16:25:30.855Z,13.11
2018-04-06T16:27:59.649Z,13.11
2018-04-06T16:30:28.374Z,13.02
2018-04-06T16:32:56.992Z,12.93
2018-04-06T16:35:26.117Z,12.89
2018-04-06T16:37:54.697Z,12.88
2018-04-06T16:40:23.565Z,12.74
2018-04-06T16:42:52.283Z,12.71
2018-04-06T16:45:21.003Z,12.70
2018-04-06T16:47:49.727Z,12.65
2018-04-06T16:50:19.126Z,12.60
2018-04-06T16:52:47.742Z,12.47
2018-04-06T16:55:16.459Z,12.58
2018-04-06T16:57:45.017Z,12.52
2018-04-06T17:00:13.738Z,12.53
2018-04-06T17:02:42.458Z,12.45
2018-04-06T17:05:11.180Z,12.46
2018-04-06T17:07:39.901Z,11.59
2018-04-06T17:10:08.527Z,12.37
2018-04-06T17:12:37.247Z,12.34
2018-04-06T17:15:05.883Z,12.25
2018-04-06T17:17:34.488Z,12.27
2018-04-06T17:20:03.114Z,12.24
2018-04-06T17:22:31.833Z,12.15
2018-04-06T17:25:00.470Z,12.19
2018-04-06T17:27:29.178Z,12.16
2018-04-06T17:29:57.796Z,12.10
2018-04-06T17:32:26.395Z,12.08
2018-04-06T17:34:55.143Z,12.06
2018-04-06T17:37:23.862Z,12.02
2018-04-06T17:39:52.441Z,12.05
2018-04-06T17:42:21.137Z,12.07
2018-04-06T17:44:51.536Z,12.08
2018-04-06T17:47:20.255Z,12.04
2018-04-06T17:49:48.893Z,12.14
2018-04-06T17:52:17.738Z,12.10
2018-04-06T17:54:46.358Z,12.21
2018-04-06T17:57:15.949Z,12.28
2018-04-06T17:59:44.664Z,12.33
2018-04-06T18:02:13.356Z,12.28
2018-04-06T18:04:41.974Z,12.23
2018-04-06T18:07:10.721Z,12.28
2018-04-06T18:09:39.382Z,12.29
2018-04-06T18:12:07.980Z,12.23
2018-04-06T18:14:36.609Z,12.30
2018-04-06T18:17:06.997Z,12.32
2018-04-06T18:19:35.722Z,12.38
2018-04-06T18:22:04.468Z,12.20
2018-04-06T18:24:33.895Z,12.34
2018-04-06T18:27:02.634Z,12.31
2018-04-06T18:29:31.335Z,12.30
2018-04-06T18:32:00.059Z,12.30
2018-04-06T18:34:28.688Z,12.37
2018-04-06T18:36:57.405Z,12.36
2018-04-06T18:39:26.040Z,12.37
2018-04-06T18:41:54.844Z,12.39
2018-04-06T18:44:23.568Z,12.45
2018-04-06T18:46:52.235Z,12.45
2018-04-06T18:49:20.809Z,12.39
2018-04-06T18:51:49.530Z,12.40
2018-04-06T18:54:19.155Z,11.58
2018-04-06T18:56:47.877Z,12.45
2018-04-06T18:59:16.706Z,12.53
2018-04-06T19:01:45.421Z,12.44
2018-04-06T19:04:14.026Z,12.51
2018-04-06T19:06:43.765Z,12.55
2018-04-06T19:09:12.493Z,12.54
2018-04-06T19:11:41.151Z,12.51
2018-04-06T19:14:09.936Z,12.56
2018-04-06T19:16:38.658Z,12.49
2018-04-06T19:19:07.390Z,12.52
2018-04-06T19:21:37.919Z,12.49
2018-04-06T19:24:06.528Z,12.48
2018-04-06T19:26:35.171Z,12.55
2018-04-06T19:29:03.871Z,12.58
2018-04-06T19:31:32.558Z,12.56
2018-04-06T19:34:01.318Z,12.51
2018-04-06T19:36:30.199Z,12.54
2018-04-06T19:38:58.962Z,12.51
2018-04-06T19:41:27.592Z,12.46
2018-04-06T19:43:57.010Z,12.30
2018-04-06T19:46:25.637Z,12.25
2018-04-06T19:48:54.554Z,12.18
2018-04-06T19:51:23.173Z,12.16
2018-04-06T19:53:51.892Z,12.16
2018-04-06T19:56:20.532Z,12.10
2018-04-06T19:58:49.235Z,12.05
2018-04-06T20:01:17.957Z,12.06
2018-04-06T20:03:46.693Z,12.01
2018-04-06T20:06:15.418Z,11.98
2018-04-06T20:08:44.024Z,11.98
2018-04-06T20:11:12.657Z,12.03
2018-04-06T20:13:41.383Z,12.05
2018-04-06T20:16:10.089Z,12.08
2018-04-06T20:18:38.728Z,12.11
2018-04-06T20:21:07.531Z,12.12
2018-04-06T20:23:36.153Z,12.18
2018-04-06T20:26:04.876Z,12.18
2018-04-06T20:28:33.566Z,12.13
2018-04-06T20:31:02.218Z,12.22
2018-04-06T20:33:30.874Z,12.23
2018-04-06T20:35:59.543Z,12.21
2018-04-06T20:38:28.128Z,12.25
2018-04-06T20:40:57.013Z,12.34
2018-04-06T20:43:25.608Z,12.30
2018-04-06T20:45:54.317Z,12.35
2018-04-06T20:48:23.073Z,12.32
2018-04-06T20:50:51.896Z,12.43
2018-04-06T20:53:20.616Z,12.33
2018-04-06T20:55:49.337Z,12.32
2018-04-06T20:58:17.966Z,12.26
2018-04-06T21:00:46.681Z,12.34
2018-04-06T21:03:15.402Z,12.42
2018-04-06T21:05:44.325Z,12.34
2018-04-06T21:08:12.884Z,11.73
2018-04-06T21:10:41.568Z,12.34
2018-04-06T21:13:10.190Z,12.30
2018-04-06T21:15:38.911Z,12.39
2018-04-06T21:18:07.547Z,12.30
2018-04-06T21:20:36.169Z,12.42
2018-04-06T21:23:04.980Z,12.46
2018-04-06T21:25:33.699Z,12.44
2018-04-06T21:28:02.424Z,12.42
2018-04-06T21:30:30.983Z,12.47
2018-04-06T21:32:59.753Z,12.45
2018-04-06T21:35:28.592Z,12.44
2018-04-06T21:37:57.308Z,12.42
2018-04-06T21:40:27.735Z,12.42
2018-04-06T21:42:56.442Z,12.41
2018-04-06T21:45:25.279Z,12.39
2018-04-06T21:47:54.005Z,12.47
2018-04-06T21:50:22.687Z,12.41
2018-04-06T21:52:51.360Z,12.47
2018-04-06T21:55:20.807Z,12.49
2018-04-06T21:57:49.443Z,12.48
2018-04-06T22:00:18.214Z,12.58
2018-04-06T22:02:46.948Z,12.56
2018-04-06T22:05:17.162Z,12.44
2018-04-06T22:07:45.766Z,12.50
2018-04-06T22:10:14.519Z,12.59
2018-04-06T22:12:43.329Z,12.63
2018-04-06T22:15:13.100Z,12.59
2018-04-06T22:17:41.877Z,12.59
2018-04-06T22:20:10.406Z,12.53
2018-04-06T22:22:41.756Z,12.51
2018-04-06T22:25:10.452Z,12.54
2018-04-06T22:27:39.203Z,12.46
2018-04-06T22:30:07.896Z,12.42
2018-04-06T22:32:36.514Z,12.60
2018-04-06T22:35:05.072Z,12.56
2018-04-06T22:37:33.669Z,12.44
2018-04-06T22:40:04.087Z,12.31
2018-04-06T22:42:32.706Z,12.28
2018-04-06T22:45:01.431Z,12.27
2018-04-06T22:47:30.056Z,12.24
2018-04-06T22:49:58.682Z,12.28
2018-04-06T22:52:27.292Z,12.30
2018-04-06T22:54:55.974Z,11.68
2018-04-06T22:57:24.743Z,12.28
2018-04-06T22:59:55.163Z,12.29
2018-04-06T23:02:23.887Z,12.22
2018-04-06T23:04:52.570Z,12.29
2018-04-06T23:07:21.334Z,12.34
2018-04-06T23:09:50.054Z,12.26
2018-04-06T23:12:18.668Z,12.39
2018-04-06T23:14:47.396Z,12.45
2018-04-06T23:17:16.019Z,12.50
2018-04-06T23:19:44.673Z,12.43
2018-04-06T23:22:13.277Z,12.43
2018-04-06T23:24:41.993Z,12.42
2018-04-06T23:27:11.407Z,12.40
2018-04-06T23:29:40.237Z,12.43
2018-04-06T23:32:08.951Z,12.37
2018-04-06T23:34:37.677Z,12.45
2018-04-06T23:37:07.215Z,12.44
2018-04-06T23:39:35.918Z,12.49
2018-04-06T23:42:04.539Z,12.49
2018-04-06T23:44:33.261Z,12.45
2018-04-06T23:47:01.886Z,12.45
2018-04-06T23:49:30.606Z,12.43
2018-04-06T23:51:59.328Z,12.46
2018-04-06T23:54:27.957Z,12.50
2018-04-06T23:56:56.673Z,12.52
2018-04-06T23:59:25.393Z,12.55
